Time;durP1;ratioP1;P1;durP2;ratioP2;P2;SDS_P1;SDS_P2;PMS_P1;PMS_P2;Temp;Humidity;BMP_temperature;BMP_pressure;BME280_temperature;BME280_humidity;BME280_pressure;Samples;Min_cycle;Max_cycle;Signal;HPM_P1;HPM_P2
2022/06/10 00:02:06;;;;;;;0.10;0.10;;;;;;;;;;5074852;28;20024;-85
2022/06/10 00:04:33;;;;;;;0.20;0.20;;;;;;;;;;5057064;28;20188;-85
2022/06/10 00:06:59;;;;;;;0.20;0.20;;;;;;;;;;5057115;28;20032;-86
2022/06/10 00:09:24;;;;;;;0.15;0.15;;;;;;;;;;5075042;28;20036;-85
2022/06/10 00:11:50;;;;;;;0.20;0.20;;;;;;;;;;5051242;28;20501;-85
2022/06/10 00:14:15;;;;;;;0.17;0.17;;;;;;;;;;5056914;28;20064;-82
2022/06/10 00:16:41;;;;;;;0.13;0.13;;;;;;;;;;5056491;28;20032;-81
2022/06/10 00:19:06;;;;;;;0.10;0.10;;;;;;;;;;5057024;28;20087;-81
2022/06/10 00:21:32;;;;;;;0.10;0.10;;;;;;;;;;5056663;28;20403;-85
2022/06/10 00:23:57;;;;;;;0.10;0.10;;;;;;;;;;5056937;28;20106;-84
2022/06/10 00:26:23;;;;;;;0.10;0.10;;;;;;;;;;5076249;28;20140;-84
2022/06/10 00:28:49;;;;;;;0.10;0.10;;;;;;;;;;5059925;28;20032;-84
2022/06/10 00:31:15;;;;;;;0.17;0.17;;;;;;;;;;5076670;28;20040;-83
2022/06/10 00:33:40;;;;;;;0.22;0.22;;;;;;;;;;5060174;28;20032;-82
2022/06/10 00:36:07;;;;;;;0.22;0.22;;;;;;;;;;5076976;28;20395;-82
2022/06/10 00:38:32;;;;;;;0.17;0.17;;;;;;;;;;5077756;28;20027;-80
2022/06/10 00:40:59;;;;;;;0.15;0.15;;;;;;;;;;5081339;28;20032;-81
2022/06/10 00:43:27;;;;;;;0.20;0.20;;;;;;;;;;5079918;28;20047;-82
2022/06/10 00:46:11;;;;;;;0.10;0.10;;;;;;;;;;5079908;28;20024;-81
2022/06/10 00:48:40;;;;;;;0.17;0.17;;;;;;;;;;5060083;28;20042;-80
2022/06/10 00:51:08;;;;;;;;;;;;;;;;;;5060381;28;20035;-82
2022/06/10 00:53:34;;;;;;;0.20;0.20;;;;;;;;;;5076600;28;19912;-81
2022/06/10 00:56:03;;;;;;;0.20;0.20;;;;;;;;;;5076003;28;20062;-81
2022/06/10 00:58:34;;;;;;;0.20;0.20;;;;;;;;;;5059551;28;20028;-81
2022/06/10 01:01:01;;;;;;;0.20;0.20;;;;;;;;;;5076578;28;20036;-82
2022/06/10 01:03:26;;;;;;;0.10;0.10;;;;;;;;;;5059975;28;20153;-80
2022/06/10 01:05:52;;;;;;;0.20;0.20;;;;;;;;;;5074742;28;20123;-79
2022/06/10 01:08:19;;;;;;;0.10;0.10;;;;;;;;;;5092233;28;20484;-80
2022/06/10 01:11:01;;;;;;;0.20;0.20;;;;;;;;;;5073548;28;20433;-79
2022/06/10 01:13:33;;;;;;;0.20;0.20;;;;;;;;;;5092863;28;20042;-80
2022/06/10 01:16:22;;;;;;;0.20;0.20;;;;;;;;;;5092864;28;20036;-81
2022/06/10 01:19:04;;;;;;;0.20;0.20;;;;;;;;;;5092791;28;20400;-80
2022/06/10 01:22:05;;;;;;;0.20;0.20;;;;;;;;;;5057747;28;20395;-80
2022/06/10 01:24:49;;;;;;;0.10;0.10;;;;;;;;;;5012097;28;20045;-80
2022/06/10 01:27:48;;;;;;;0.13;0.13;;;;;;;;;;5052240;28;20487;-81
2022/06/10 01:30:14;;;;;;;0.17;0.17;;;;;;;;;;5076301;28;20053;-82
2022/06/10 01:32:54;;;;;;;0.10;0.10;;;;;;;;;;5059283;28;20119;-82
2022/06/10 01:35:49;;;;;;;0.10;0.10;;;;;;;;;;5094102;28;20035;-83
2022/06/10 01:38:15;;;;;;;0.13;0.13;;;;;;;;;;5057787;28;20544;-83
2022/06/10 01:40:53;;;;;;;0.15;0.15;;;;;;;;;;5093919;28;20032;-83
2022/06/10 01:43:19;;;;;;;0.30;0.30;;;;;;;;;;5075815;28;20032;-83
2022/06/10 01:45:50;;;;;;;0.20;0.20;;;;;;;;;;5058425;28;20479;-84
2022/06/10 01:48:34;;;;;;;0.20;0.20;;;;;;;;;;5093934;28;20070;-81
2022/06/10 01:51:32;;;;;;;0.20;0.20;;;;;;;;;;5075960;28;20177;-82
2022/06/10 01:54:05;;;;;;;0.10;0.10;;;;;;;;;;5048995;28;20097;-83
2022/06/10 01:56:37;;;;;;;0.20;0.20;;;;;;;;;;5059868;28;20047;-81
2022/06/10 01:59:21;;;;;;;0.20;0.20;;;;;;;;;;5093506;28;20372;-81
2022/06/10 02:01:52;;;;;;;0.17;0.17;;;;;;;;;;5058637;28;20494;-81
2022/06/10 02:04:24;;;;;;;0.10;0.10;;;;;;;;;;5075256;28;20136;-81
2022/06/10 02:07:01;;;;;;;0.20;0.20;;;;;;;;;;5093267;28;20052;-81
2022/06/10 02:09:44;;;;;;;0.20;0.20;;;;;;;;;;5075430;28;20032;-80
2022/06/10 02:12:30;;;;;;;0.13;0.13;;;;;;;;;;5091331;28;20055;-82
2022/06/10 02:15:00;;;;;;;0.20;0.20;;;;;;;;;;5093222;28;20115;-81
2022/06/10 02:17:29;;;;;;;0.10;0.10;;;;;;;;;;5058471;28;20035;-81
2022/06/10 02:19:55;;;;;;;;;;;;;;;;;;5075499;28;20062;-80
2022/06/10 02:22:23;;;;;;;0.15;0.15;;;;;;;;;;5075159;28;19908;-81
2022/06/10 02:24:50;;;;;;;0.20;0.20;;;;;;;;;;5058324;28;20576;-81
2022/06/10 02:27:18;;;;;;;0.10;0.10;;;;;;;;;;5074318;28;20094;-82
2022/06/10 02:29:55;;;;;;;0.10;0.10;;;;;;;;;;5093045;28;20071;-81
2022/06/10 02:32:21;;;;;;;0.20;0.20;;;;;;;;;;5093096;28;20055;-81
2022/06/10 02:34:47;;;;;;;0.20;0.20;;;;;;;;;;5058130;28;20810;-81
2022/06/10 02:37:24;;;;;;;0.20;0.20;;;;;;;;;;5093006;28;20036;-81
2022/06/10 02:40:01;;;;;;;0.20;0.20;;;;;;;;;;5073900;28;20032;-81
2022/06/10 02:42:32;;;;;;;0.20;0.20;;;;;;;;;;5072707;28;20095;-82
2022/06/10 02:45:16;;;;;;;0.13;0.13;;;;;;;;;;5037892;28;20036;-79
2022/06/10 02:47:46;;;;;;;0.13;0.13;;;;;;;;;;5038055;28;20049;-82
2022/06/10 02:50:11;;;;;;;;;;;;;;;;;;5055076;28;20039;-82
2022/06/10 02:52:37;;;;;;;0.13;0.13;;;;;;;;;;5054556;28;19912;-80
2022/06/10 02:55:04;;;;;;;0.20;0.20;;;;;;;;;;5072555;28;20742;-82
2022/06/10 03:03:21;;;;;;;0.20;0.20;;;;;;;;;;5082117;28;20471;-83
2022/06/10 03:05:56;;;;;;;0.20;0.20;;;;;;;;;;5075448;28;20132;-84
2022/06/10 03:08:34;;;;;;;0.28;0.28;;;;;;;;;;5056162;28;20432;-82
2022/06/10 03:11:10;;;;;;;0.20;0.20;;;;;;;;;;5088115;28;20475;-81
2022/06/10 03:13:36;;;;;;;0.20;0.20;;;;;;;;;;5054161;28;20148;-83
2022/06/10 03:16:10;;;;;;;0.15;0.15;;;;;;;;;;5089244;28;20492;-83
2022/06/10 03:18:42;;;;;;;0.20;0.20;;;;;;;;;;5070827;28;20036;-82
2022/06/10 03:21:27;;;;;;;0.20;0.20;;;;;;;;;;5070715;28;20028;-82
2022/06/10 03:23:53;;;;;;;0.20;0.20;;;;;;;;;;5088892;28;20115;-82
2022/06/10 03:26:18;;;;;;;0.10;0.10;;;;;;;;;;5069474;28;20065;-81
2022/06/10 03:29:00;;;;;;;0.20;0.20;;;;;;;;;;5088298;28;20051;-80
2022/06/10 03:31:31;;;;;;;0.30;0.30;;;;;;;;;;5053606;28;20552;-80
2022/06/10 03:34:15;;;;;;;0.43;0.43;;;;;;;;;;5069931;28;20074;-80
2022/06/10 03:36:40;;;;;;;0.20;0.20;;;;;;;;;;5088541;28;20036;-81
2022/06/10 03:39:06;;;;;;;0.20;0.20;;;;;;;;;;5070544;28;20040;-83
2022/06/10 03:41:33;;;;;;;0.17;0.17;;;;;;;;;;5053084;28;20111;-82
2022/06/10 03:44:06;;;;;;;0.20;0.20;;;;;;;;;;5070230;28;20040;-81
2022/06/10 03:46:32;;;;;;;0.20;0.20;;;;;;;;;;5053714;28;20418;-80
2022/06/10 03:49:01;;;;;;;0.20;0.20;;;;;;;;;;5070204;28;20080;-82
2022/06/10 03:51:27;;;;;;;0.10;0.10;;;;;;;;;;5087439;28;20032;-77
2022/06/10 03:53:53;;;;;;;0.20;0.20;;;;;;;;;;5088005;28;20032;-80
2022/06/10 03:56:25;;;;;;;0.20;0.20;;;;;;;;;;5087612;28;20032;-81
2022/06/10 03:58:50;;;;;;;0.20;0.20;;;;;;;;;;5088377;28;20111;-79
2022/06/10 04:01:16;;;;;;;0.20;0.20;;;;;;;;;;5087611;28;20127;-81
2022/06/10 04:03:42;;;;;;;0.20;0.20;;;;;;;;;;5091218;28;20435;-83
2022/06/10 04:06:08;;;;;;;0.20;0.20;;;;;;;;;;5073114;28;20105;-80
2022/06/10 04:08:34;;;;;;;0.20;0.20;;;;;;;;;;5072942;28;20020;-80
2022/06/10 04:10:59;;;;;;;0.10;0.10;;;;;;;;;;5071711;28;20043;-84
2022/06/10 04:13:25;;;;;;;0.15;0.15;;;;;;;;;;5089647;28;20029;-80
2022/06/10 04:15:50;;;;;;;0.20;0.20;;;;;;;;;;5037686;28;20262;-81
2022/06/10 04:18:16;;;;;;;0.20;0.20;;;;;;;;;;5057277;28;20040;-83
2022/06/10 04:20:42;;;;;;;0.20;0.20;;;;;;;;;;5066808;28;20510;-82
2022/06/10 04:23:07;;;;;;;0.20;0.20;;;;;;;;;;5050646;28;20040;-81
2022/06/10 04:25:34;;;;;;;0.20;0.20;;;;;;;;;;5087281;28;20024;-81
2022/06/10 04:28:00;;;;;;;0.20;0.20;;;;;;;;;;5072615;28;20028;-81
2022/06/10 04:30:25;;;;;;;0.20;0.20;;;;;;;;;;5091247;28;20376;-83
2022/06/10 04:32:51;;;;;;;0.20;0.20;;;;;;;;;;5084036;28;20032;-83
2022/06/10 04:35:17;;;;;;;0.20;0.20;;;;;;;;;;5070585;28;20047;-81
2022/06/10 04:37:44;;;;;;;0.10;0.10;;;;;;;;;;5070735;28;20070;-81
2022/06/10 04:40:12;;;;;;;0.20;0.20;;;;;;;;;;5055413;28;20851;-80
2022/06/10 04:42:37;;;;;;;0.10;0.10;;;;;;;;;;5073109;28;20044;-81
2022/06/10 04:45:03;;;;;;;0.20;0.20;;;;;;;;;;5072196;28;20050;-78
2022/06/10 04:47:28;;;;;;;0.20;0.20;;;;;;;;;;5071220;28;20040;-79
2022/06/10 04:49:59;;;;;;;0.15;0.15;;;;;;;;;;5089801;28;20032;-80
2022/06/10 04:52:27;;;;;;;0.17;0.17;;;;;;;;;;5068881;28;20097;-81
2022/06/10 04:54:53;;;;;;;0.20;0.20;;;;;;;;;;5069156;28;20028;-82
2022/06/10 04:57:19;;;;;;;0.20;0.20;;;;;;;;;;5069199;28;20481;-81
2022/06/10 04:59:44;;;;;;;0.20;0.20;;;;;;;;;;5053178;28;20089;-80
2022/06/10 05:02:10;;;;;;;0.10;0.10;;;;;;;;;;5068615;28;20783;-79
2022/06/10 05:04:35;;;;;;;0.15;0.15;;;;;;;;;;5085678;28;20040;-76
2022/06/10 05:07:00;;;;;;;0.20;0.20;;;;;;;;;;5089919;28;20032;-73
2022/06/10 05:09:26;;;;;;;0.15;0.15;;;;;;;;;;5089108;28;20395;-73
2022/06/10 05:11:52;;;;;;;0.20;0.20;;;;;;;;;;5090339;28;20043;-73
2022/06/10 05:14:17;;;;;;;0.20;0.20;;;;;;;;;;5080966;28;20433;-73
2022/06/10 05:16:43;;;;;;;0.20;0.20;;;;;;;;;;5054522;28;20032;-73
2022/06/10 05:19:09;;;;;;;0.20;0.20;;;;;;;;;;5070388;28;20103;-72
2022/06/10 05:21:34;;;;;;;0.20;0.20;;;;;;;;;;5069729;28;20120;-73
2022/06/10 05:24:00;;;;;;;0.20;0.20;;;;;;;;;;5069475;28;20120;-73
2022/06/10 05:26:29;;;;;;;0.20;0.20;;;;;;;;;;5069648;28;20032;-73
2022/06/10 05:28:55;;;;;;;0.10;0.10;;;;;;;;;;5051726;28;20051;-74
2022/06/10 05:31:20;;;;;;;0.10;0.10;;;;;;;;;;5058204;28;20375;-73
2022/06/10 05:36:30;;;;;;;0.10;0.10;;;;;;;;;;5074017;28;20083;-73
2022/06/10 05:38:55;;;;;;;0.20;0.20;;;;;;;;;;5089588;28;20020;-73
2022/06/10 05:44:06;;;;;;;0.20;0.20;;;;;;;;;;5070780;28;20466;-71
2022/06/10 05:46:31;;;;;;;0.20;0.20;;;;;;;;;;5089991;28;20079;-70
2022/06/10 05:48:57;;;;;;;0.20;0.20;;;;;;;;;;5089318;28;20051;-70
2022/06/10 05:51:23;;;;;;;0.30;0.30;;;;;;;;;;5070472;28;20035;-71
2022/06/10 05:53:48;;;;;;;0.20;0.20;;;;;;;;;;5089455;28;20523;-71
2022/06/10 05:56:14;;;;;;;0.10;0.10;;;;;;;;;;5088054;28;20024;-70
2022/06/10 05:58:40;;;;;;;0.17;0.17;;;;;;;;;;5088366;28;20094;-69
2022/06/10 06:01:07;;;;;;;0.10;0.10;;;;;;;;;;5087936;28;20531;-75
2022/06/10 06:03:33;;;;;;;0.10;0.10;;;;;;;;;;5084406;28;20131;-74
2022/06/10 06:05:59;;;;;;;0.10;0.10;;;;;;;;;;5086054;28;20055;-74
2022/06/10 06:08:24;;;;;;;0.20;0.20;;;;;;;;;;5083769;28;20487;-74
2022/06/10 06:10:50;;;;;;;0.20;0.20;;;;;;;;;;5089114;28;20028;-71
2022/06/10 06:13:15;;;;;;;0.10;0.10;;;;;;;;;;5087261;28;20110;-73
2022/06/10 06:15:41;;;;;;;0.20;0.20;;;;;;;;;;5089187;28;20054;-73
2022/06/10 06:18:06;;;;;;;0.20;0.20;;;;;;;;;;5069187;28;20552;-74
2022/06/10 06:20:32;;;;;;;0.17;0.17;;;;;;;;;;5086934;28;20020;-72
2022/06/10 06:22:58;;;;;;;0.20;0.20;;;;;;;;;;5062337;28;20024;-74
2022/06/10 06:25:23;;;;;;;0.20;0.20;;;;;;;;;;5085087;28;20028;-75
2022/06/10 06:27:49;;;;;;;0.10;0.10;;;;;;;;;;5085414;28;20554;-75
2022/06/10 06:30:36;;;;;;;0.20;0.20;;;;;;;;;;5085085;28;20576;-74
2022/06/10 06:33:03;;;;;;;0.20;0.20;;;;;;;;;;5086299;28;20379;-73
2022/06/10 06:35:30;;;;;;;0.13;0.13;;;;;;;;;;5067766;28;20498;-73
2022/06/10 06:37:56;;;;;;;0.10;0.10;;;;;;;;;;5067706;28;20467;-74
2022/06/10 06:40:21;;;;;;;0.20;0.20;;;;;;;;;;5086481;28;20081;-74
2022/06/10 06:42:47;;;;;;;0.20;0.20;;;;;;;;;;5084886;28;20039;-74
2022/06/10 06:45:14;;;;;;;0.17;0.17;;;;;;;;;;5085075;28;20036;-74
2022/06/10 06:47:40;;;;;;;0.20;0.20;;;;;;;;;;5086574;28;20059;-74
2022/06/10 06:50:06;;;;;;;0.10;0.10;;;;;;;;;;5087217;28;20365;-73
2022/06/10 06:52:31;;;;;;;0.10;0.10;;;;;;;;;;5088452;28;20039;-74
2022/06/10 06:54:56;;;;;;;0.20;0.20;;;;;;;;;;5088639;28;20032;-73
2022/06/10 06:57:22;;;;;;;0.10;0.10;;;;;;;;;;5088500;28;20028;-74
2022/06/10 06:59:47;;;;;;;0.20;0.20;;;;;;;;;;5088623;28;20467;-74
2022/06/10 07:02:13;;;;;;;0.20;0.20;;;;;;;;;;5088127;28;20468;-74
2022/06/10 07:04:38;;;;;;;0.73;0.73;;;;;;;;;;5088557;28;20039;-72
2022/06/10 07:07:04;;;;;;;0.10;0.10;;;;;;;;;;5088511;28;20119;-74
2022/06/10 07:09:30;;;;;;;0.20;0.20;;;;;;;;;;5088405;28;20035;-73
2022/06/10 07:11:56;;;;;;;0.10;0.10;;;;;;;;;;5070302;28;20040;-73
2022/06/10 07:14:22;;;;;;;0.20;0.20;;;;;;;;;;5088389;28;20069;-72
2022/06/10 07:16:51;;;;;;;0.20;0.20;;;;;;;;;;5088085;28;20472;-74
2022/06/10 07:19:17;;;;;;;0.20;0.20;;;;;;;;;;5070003;28;20127;-74
2022/06/10 07:21:42;;;;;;;0.10;0.10;;;;;;;;;;5088251;28;20523;-74
2022/06/10 07:24:08;;;;;;;0.20;0.20;;;;;;;;;;5087962;28;20123;-74
2022/06/10 07:26:34;;;;;;;0.10;0.10;;;;;;;;;;5070444;28;20036;-74
2022/06/10 07:29:00;;;;;;;0.30;0.30;;;;;;;;;;5070064;28;20031;-75
2022/06/10 07:31:25;;;;;;;0.20;0.20;;;;;;;;;;5088309;28;20044;-74
2022/06/10 07:33:51;;;;;;;0.20;0.20;;;;;;;;;;5069810;28;20020;-75
2022/06/10 07:36:16;;;;;;;0.20;0.20;;;;;;;;;;5070199;28;20475;-74
2022/06/10 07:38:42;;;;;;;0.20;0.20;;;;;;;;;;5091639;28;20064;-74
2022/06/10 07:43:52;;;;;;;0.22;0.22;;;;;;;;;;5091957;28;20111;-74
2022/06/10 07:46:19;;;;;;;0.20;0.20;;;;;;;;;;5074247;28;20112;-73
2022/06/10 07:48:45;;;;;;;0.20;0.20;;;;;;;;;;5090077;28;20032;-74
2022/06/10 07:51:10;;;;;;;0.20;0.20;;;;;;;;;;5091234;28;20032;-74
2022/06/10 07:53:36;;;;;;;0.20;0.20;;;;;;;;;;5091161;28;20183;-73
2022/06/10 07:56:01;;;;;;;0.22;0.22;;;;;;;;;;5091245;28;20031;-73
2022/06/10 07:58:29;;;;;;;0.20;0.20;;;;;;;;;;5091158;28;20058;-74
2022/06/10 08:00:55;;;;;;;0.30;0.30;;;;;;;;;;5072318;28;20403;-73
2022/06/10 08:03:20;;;;;;;0.20;0.20;;;;;;;;;;5090921;28;20032;-73
2022/06/10 08:05:46;;;;;;;0.20;0.20;;;;;;;;;;5091097;28;20027;-74
2022/06/10 08:08:15;;;;;;;0.20;0.20;;;;;;;;;;5090872;28;20077;-73
2022/06/10 08:10:41;;;;;;;0.20;0.20;;;;;;;;;;5090740;28;20364;-73
2022/06/10 08:13:06;;;;;;;0.20;0.20;;;;;;;;;;5072369;28;20034;-72
2022/06/10 08:15:32;;;;;;;0.20;0.20;;;;;;;;;;5089003;28;20040;-73
2022/06/10 08:17:58;;;;;;;0.30;0.30;;;;;;;;;;5090516;28;20032;-74
2022/06/10 08:23:12;;;;;;;0.20;0.20;;;;;;;;;;5090962;28;20051;-73
2022/06/10 08:25:38;;;;;;;0.22;0.22;;;;;;;;;;5090760;28;20020;-73
2022/06/10 08:28:04;;;;;;;0.30;0.30;;;;;;;;;;5089783;28;20434;-74
2022/06/10 08:30:29;;;;;;;0.25;0.25;;;;;;;;;;5072276;28;20123;-73
2022/06/10 08:32:55;;;;;;;0.20;0.20;;;;;;;;;;5090399;28;20036;-73
2022/06/10 08:35:20;;;;;;;0.20;0.20;;;;;;;;;;5090528;28;20593;-74
2022/06/10 08:37:46;;;;;;;0.32;0.32;;;;;;;;;;5090122;28;20028;-73
2022/06/10 08:40:24;;;;;;;0.20;0.20;;;;;;;;;;5090169;28;20038;-74
2022/06/10 08:42:51;;;;;;;0.30;0.30;;;;;;;;;;5090020;28;20031;-75
2022/06/10 08:45:35;;;;;;;0.55;0.55;;;;;;;;;;5090432;28;20090;-74
2022/06/10 08:48:13;;;;;;;0.28;0.28;;;;;;;;;;5089924;28;20118;-74
2022/06/10 08:51:01;;;;;;;0.30;0.30;;;;;;;;;;5072115;28;20059;-74
2022/06/10 08:53:31;;;;;;;0.23;0.23;;;;;;;;;;5089765;28;20474;-74
2022/06/10 08:56:03;;;;;;;0.20;0.20;;;;;;;;;;5089886;28;20028;-74
2022/06/10 08:58:36;;;;;;;0.20;0.20;;;;;;;;;;5054418;28;20044;-73
2022/06/10 09:01:05;;;;;;;0.22;0.22;;;;;;;;;;5090010;28;20028;-73
2022/06/10 09:03:34;;;;;;;0.22;0.22;;;;;;;;;;5089770;28;20040;-73
2022/06/10 09:06:02;;;;;;;0.20;0.20;;;;;;;;;;5071950;28;20025;-74
2022/06/10 09:08:30;;;;;;;0.20;0.20;;;;;;;;;;5090157;28;20036;-73
2022/06/10 09:11:14;;;;;;;0.20;0.20;;;;;;;;;;5071812;28;20039;-74
2022/06/10 09:13:42;;;;;;;0.25;0.25;;;;;;;;;;5090028;28;20063;-73
2022/06/10 09:16:14;;;;;;;0.30;0.30;;;;;;;;;;5089407;28;20028;-74
2022/06/10 09:18:45;;;;;;;0.30;0.30;;;;;;;;;;5089928;28;20035;-75
2022/06/10 09:21:16;;;;;;;0.20;0.20;;;;;;;;;;5090365;28;20105;-73
2022/06/10 09:23:43;;;;;;;0.30;0.30;;;;;;;;;;5089769;28;20492;-74
2022/06/10 09:26:12;;;;;;;0.20;0.20;;;;;;;;;;5089580;28;20112;-74
2022/06/10 09:28:38;;;;;;;0.20;0.20;;;;;;;;;;5089604;28;20032;-74
2022/06/10 09:31:07;;;;;;;0.20;0.20;;;;;;;;;;5090437;28;20073;-73
2022/06/10 09:33:40;;;;;;;0.20;0.20;;;;;;;;;;5089700;28;20062;-73
2022/06/10 09:36:06;;;;;;;0.22;0.22;;;;;;;;;;5089454;28;20024;-73
2022/06/10 09:38:58;;;;;;;0.20;0.20;;;;;;;;;;5086512;28;20559;-73
2022/06/10 09:41:49;;;;;;;0.35;0.35;;;;;;;;;;5050195;28;20046;-73
2022/06/10 09:44:17;;;;;;;22.13;6.07;;;;;;;;;;5089287;28;20039;-73
2022/06/10 09:46:52;;;;;;;0.20;0.20;;;;;;;;;;5089580;28;20044;-75
2022/06/10 09:49:29;;;;;;;0.20;0.20;;;;;;;;;;5089105;28;20032;-74
2022/06/10 09:51:58;;;;;;;0.20;0.20;;;;;;;;;;5054490;28;20093;-73
2022/06/10 09:54:24;;;;;;;;;;;;;;;;;;5071897;28;20435;-74
2022/06/10 09:56:53;;;;;;;0.20;0.20;;;;;;;;;;5071231;28;20014;-73
2022/06/10 09:59:37;;;;;;;0.30;0.30;;;;;;;;;;5088661;28;20372;-74
2022/06/10 10:02:09;;;;;;;0.30;0.30;;;;;;;;;;5088758;28;20024;-74
2022/06/10 10:04:54;;;;;;;0.20;0.20;;;;;;;;;;5071293;28;20036;-73
2022/06/10 10:07:20;;;;;;;0.20;0.20;;;;;;;;;;5088872;28;20135;-73
2022/06/10 10:09:51;;;;;;;0.20;0.20;;;;;;;;;;5088898;28;20543;-73
2022/06/10 10:12:28;;;;;;;0.30;0.30;;;;;;;;;;5058005;28;20043;-73
2022/06/10 10:15:03;;;;;;;0.20;0.20;;;;;;;;;;5087809;28;20056;-74
2022/06/10 10:17:42;;;;;;;0.30;0.30;;;;;;;;;;5089443;28;20083;-73
2022/06/10 10:20:26;;;;;;;0.30;0.30;;;;;;;;;;5072098;28;20072;-73
2022/06/10 10:22:54;;;;;;;0.40;0.40;;;;;;;;;;5083736;28;20031;-78
2022/06/10 10:25:21;;;;;;;0.33;0.33;;;;;;;;;;5070235;28;20447;-79
2022/06/10 10:27:47;;;;;;;0.30;0.30;;;;;;;;;;5088989;28;20258;-79
2022/06/10 10:30:28;;;;;;;0.30;0.30;;;;;;;;;;5086364;28;20036;-78
2022/06/10 10:32:55;;;;;;;0.30;0.30;;;;;;;;;;5069052;28;20024;-78
2022/06/10 10:35:23;;;;;;;0.32;0.32;;;;;;;;;;5071765;28;20111;-84
2022/06/10 10:37:54;;;;;;;0.20;0.20;;;;;;;;;;5056954;28;20041;-78
2022/06/10 10:40:20;;;;;;;0.30;0.30;;;;;;;;;;5068899;28;20051;-80
2022/06/10 10:42:47;;;;;;;0.30;0.30;;;;;;;;;;5083843;28;20487;-76
2022/06/10 10:45:20;;;;;;;0.20;0.20;;;;;;;;;;5068862;28;20071;-76
2022/06/10 10:47:48;;;;;;;0.30;0.30;;;;;;;;;;5086495;28;20067;-78
2022/06/10 10:50:19;;;;;;;0.30;0.30;;;;;;;;;;5086963;28;20487;-78
2022/06/10 10:52:45;;;;;;;0.38;0.38;;;;;;;;;;5088210;28;20062;-78
2022/06/10 10:55:14;;;;;;;0.40;0.40;;;;;;;;;;5086751;28;20032;-78
2022/06/10 10:57:53;;;;;;;0.30;0.30;;;;;;;;;;5086740;28;20081;-76
2022/06/10 11:00:48;;;;;;;0.20;0.20;;;;;;;;;;5086516;28;20093;-78
2022/06/10 11:03:28;;;;;;;0.38;0.38;;;;;;;;;;5072794;28;20126;-78
2022/06/10 11:05:54;;;;;;;0.30;0.30;;;;;;;;;;5086859;28;20401;-78
2022/06/10 11:08:20;;;;;;;0.30;0.30;;;;;;;;;;5087581;28;20043;-78
2022/06/10 11:10:51;;;;;;;0.30;0.30;;;;;;;;;;5088961;28;20044;-79
2022/06/10 11:13:44;;;;;;;0.32;0.32;;;;;;;;;;5092612;28;20043;-79
2022/06/10 11:16:15;;;;;;;0.38;0.38;;;;;;;;;;5089204;28;20040;-78
2022/06/10 11:18:41;;;;;;;0.30;0.30;;;;;;;;;;5092226;28;20046;-76
2022/06/10 11:21:07;;;;;;;0.30;0.30;;;;;;;;;;5091863;28;20086;-77
2022/06/10 11:23:32;;;;;;;0.35;0.35;;;;;;;;;;5073759;28;20060;-78
2022/06/10 11:26:25;;;;;;;0.30;0.30;;;;;;;;;;5090959;28;20429;-76
2022/06/10 11:29:02;;;;;;;0.30;0.30;;;;;;;;;;5088609;28;20063;-77
2022/06/10 11:31:31;;;;;;;0.30;0.30;;;;;;;;;;5091784;28;20107;-79
2022/06/10 11:33:58;;;;;;;0.40;0.40;;;;;;;;;;5091534;28;20040;-78
2022/06/10 11:36:25;;;;;;;0.30;0.30;;;;;;;;;;5056896;28;20170;-79
2022/06/10 11:38:52;;;;;;;0.30;0.30;;;;;;;;;;5073927;28;20484;-79
2022/06/10 11:41:23;;;;;;;0.40;0.40;;;;;;;;;;5091476;28;20028;-79
2022/06/10 11:43:55;;;;;;;0.30;0.30;;;;;;;;;;5091755;28;20036;-76
2022/06/10 11:46:24;;;;;;;0.35;0.35;;;;;;;;;;5073702;28;20851;-79
2022/06/10 11:49:08;;;;;;;0.30;0.30;;;;;;;;;;5091304;28;20032;-79
2022/06/10 11:51:40;;;;;;;0.30;0.30;;;;;;;;;;5073356;28;20046;-78
2022/06/10 11:54:09;;;;;;;0.30;0.30;;;;;;;;;;5091103;28;20093;-79
2022/06/10 11:59:53;;;;;;;0.30;0.30;;;;;;;;;;5091370;28;20040;-78
2022/06/10 12:02:30;;;;;;;0.22;0.22;;;;;;;;;;5091531;28;20042;-81
2022/06/10 12:05:18;;;;;;;0.40;0.40;;;;;;;;;;5073601;28;20036;-76
2022/06/10 12:07:53;;;;;;;0.35;0.35;;;;;;;;;;5073731;28;20032;-77
2022/06/10 12:10:23;;;;;;;0.45;0.45;;;;;;;;;;5091220;28;20115;-77
2022/06/10 12:12:52;;;;;;;0.30;0.30;;;;;;;;;;5073988;28;20097;-76
2022/06/10 12:15:18;;;;;;;0.30;0.30;;;;;;;;;;5092302;28;20012;-76
2022/06/10 12:17:46;;;;;;;0.40;0.40;;;;;;;;;;5091087;28;20028;-77
2022/06/10 12:20:25;;;;;;;0.38;0.38;;;;;;;;;;5090868;28;20020;-77
2022/06/10 12:22:51;;;;;;;0.30;0.30;;;;;;;;;;5090732;28;20085;-76
2022/06/10 12:25:21;;;;;;;0.30;0.30;;;;;;;;;;5091257;28;20032;-78
2022/06/10 12:27:52;;;;;;;0.32;0.32;;;;;;;;;;5074447;28;20034;-77
2022/06/10 12:30:25;;;;;;;0.32;0.32;;;;;;;;;;5073701;28;20383;-77
2022/06/10 12:32:52;;;;;;;0.30;0.30;;;;;;;;;;5057322;28;20071;-76
2022/06/10 12:35:23;;;;;;;0.40;0.40;;;;;;;;;;5091176;28;20051;-76
2022/06/10 12:38:04;;;;;;;0.40;0.40;;;;;;;;;;5090840;28;20035;-76
2022/06/10 12:40:43;;;;;;;0.40;0.40;;;;;;;;;;5091215;28;20230;-77
2022/06/10 12:43:08;;;;;;;0.50;0.50;;;;;;;;;;5090494;28;20036;-76
2022/06/10 12:45:37;;;;;;;0.40;0.40;;;;;;;;;;5091134;28;20483;-76
2022/06/10 12:48:03;;;;;;;;;;;;;;;;;;5091103;28;20099;-76
2022/06/10 12:50:36;;;;;;;0.40;0.40;;;;;;;;;;5090809;28;19964;-76
2022/06/10 12:53:01;;;;;;;0.40;0.40;;;;;;;;;;5090858;28;20065;-78
2022/06/10 12:55:44;;;;;;;0.38;0.38;;;;;;;;;;5091174;28;20032;-78
2022/06/10 12:58:28;;;;;;;0.38;0.38;;;;;;;;;;5091136;28;20032;-76
2022/06/10 13:01:10;;;;;;;0.30;0.30;;;;;;;;;;5090570;28;20032;-77
2022/06/10 13:03:39;;;;;;;0.30;0.30;;;;;;;;;;5090613;28;20066;-75
2022/06/10 13:16:25;;;;;;;0.60;0.60;;;;;;;;;;5087980;28;19923;-79
2022/06/10 13:18:55;;;;;;;0.40;0.40;;;;;;;;;;5083295;28;20032;-79
2022/06/10 13:21:26;;;;;;;0.30;0.30;;;;;;;;;;5060706;28;20173;-78
2022/06/10 13:23:58;;;;;;;0.40;0.40;;;;;;;;;;5080925;28;20028;-79
2022/06/10 13:26:23;;;;;;;0.40;0.40;;;;;;;;;;5076732;28;20047;-79
2022/06/10 13:28:49;;;;;;;0.30;0.30;;;;;;;;;;5066883;28;20032;-78
2022/06/10 13:31:24;;;;;;;0.55;0.55;;;;;;;;;;5089856;28;20064;-78
2022/06/10 13:33:58;;;;;;;0.40;0.40;;;;;;;;;;5070195;28;20059;-77
2022/06/10 13:36:25;;;;;;;0.40;0.40;;;;;;;;;;5090066;28;20028;-79
2022/06/10 13:38:52;;;;;;;0.40;0.40;;;;;;;;;;5088195;28;20103;-78
2022/06/10 13:44:18;;;;;;;0.60;0.60;;;;;;;;;;5088704;28;20058;-78
2022/06/10 13:46:45;;;;;;;0.50;0.50;;;;;;;;;;5071806;28;20032;-79
2022/06/10 13:49:16;;;;;;;0.40;0.40;;;;;;;;;;5089300;28;20031;-78
2022/06/10 13:51:59;;;;;;;0.30;0.30;;;;;;;;;;5089772;28;20051;-78
2022/06/10 13:54:28;;;;;;;0.40;0.40;;;;;;;;;;5086358;28;20059;-76
2022/06/10 13:56:59;;;;;;;0.85;0.75;;;;;;;;;;5088887;28;20039;-77
2022/06/10 13:59:29;;;;;;;0.50;0.50;;;;;;;;;;5088445;28;20028;-76
2022/06/10 14:01:58;;;;;;;0.30;0.30;;;;;;;;;;5089699;28;20052;-77
2022/06/10 14:04:28;;;;;;;0.30;0.30;;;;;;;;;;5087956;28;20032;-79
2022/06/10 14:06:57;;;;;;;0.40;0.40;;;;;;;;;;5089321;28;20028;-79
2022/06/10 14:09:27;;;;;;;0.50;0.50;;;;;;;;;;5089580;28;20040;-79
2022/06/10 14:11:59;;;;;;;0.50;0.50;;;;;;;;;;5088076;28;20089;-78
2022/06/10 14:14:25;;;;;;;0.40;0.40;;;;;;;;;;5088115;28;20066;-77
2022/06/10 14:17:09;;;;;;;0.40;0.40;;;;;;;;;;5087259;28;20024;-76
2022/06/10 14:19:41;;;;;;;0.50;0.50;;;;;;;;;;5074256;28;20144;-76
2022/06/10 14:22:18;;;;;;;0.40;0.40;;;;;;;;;;5053429;28;20487;-78
2022/06/10 14:25:16;;;;;;;0.40;0.40;;;;;;;;;;5042752;28;20051;-74
2022/06/10 14:27:44;;;;;;;0.50;0.50;;;;;;;;;;5074207;28;20044;-75
2022/06/10 14:30:23;;;;;;;0.30;0.30;;;;;;;;;;5032319;28;20094;-75
2022/06/10 14:32:57;;;;;;;0.50;0.50;;;;;;;;;;5033931;28;20909;-75
2022/06/10 14:35:37;;;;;;;0.40;0.40;;;;;;;;;;5068276;28;20500;-75
2022/06/10 14:38:13;;;;;;;0.35;0.35;;;;;;;;;;5049392;28;20089;-74
2022/06/10 14:40:58;;;;;;;0.52;0.50;;;;;;;;;;5066672;28;20127;-77
2022/06/10 14:43:29;;;;;;;0.45;0.45;;;;;;;;;;5066703;28;20062;-76
2022/06/10 14:46:09;;;;;;;0.40;0.40;;;;;;;;;;5055732;28;20629;-77
2022/06/10 14:48:37;;;;;;;0.40;0.40;;;;;;;;;;5068615;28;20082;-77
2022/06/10 14:51:07;;;;;;;0.50;0.50;;;;;;;;;;5087812;28;20131;-76
2022/06/10 14:53:35;;;;;;;0.68;0.55;;;;;;;;;;5071497;28;20103;-75
2022/06/10 14:56:03;;;;;;;0.38;0.38;;;;;;;;;;5088646;28;20116;-75
2022/06/10 14:58:29;;;;;;;0.30;0.30;;;;;;;;;;5088715;28;20024;-76
2022/06/10 15:00:56;;;;;;;0.60;0.60;;;;;;;;;;5070214;28;20119;-77
2022/06/10 15:03:25;;;;;;;0.40;0.40;;;;;;;;;;5054161;28;20059;-74
2022/06/10 15:08:42;;;;;;;0.40;0.40;;;;;;;;;;5086284;28;20035;-74
2022/06/10 15:11:10;;;;;;;0.40;0.40;;;;;;;;;;5082093;28;20036;-74
2022/06/10 15:13:36;;;;;;;0.43;0.43;;;;;;;;;;5087993;28;20483;-74
2022/06/10 15:16:03;;;;;;;0.73;0.68;;;;;;;;;;5070124;28;20036;-74
2022/06/10 15:18:30;;;;;;;0.80;0.50;;;;;;;;;;5088500;28;20036;-75
2022/06/10 15:20:58;;;;;;;0.50;0.50;;;;;;;;;;5069961;28;20036;-74
2022/06/10 15:23:24;;;;;;;0.40;0.40;;;;;;;;;;5088457;28;20043;-74
2022/06/10 15:25:52;;;;;;;0.40;0.40;;;;;;;;;;5088321;28;20036;-75
2022/06/10 15:28:22;;;;;;;0.35;0.35;;;;;;;;;;5087950;28;20056;-74
2022/06/10 15:30:49;;;;;;;0.32;0.32;;;;;;;;;;5070012;28;20040;-74
2022/06/10 15:33:16;;;;;;;0.40;0.40;;;;;;;;;;5088747;28;20089;-76
2022/06/10 15:41:18;;;;;;;0.30;0.30;;;;;;;;;;5088414;28;20036;-75
2022/06/10 15:43:47;;;;;;;0.30;0.30;;;;;;;;;;5086440;28;20038;-75
2022/06/10 15:46:20;;;;;;;0.30;0.30;;;;;;;;;;5087890;28;20041;-75